createdAt,value
2018-06-24T00:00:04.784Z,12.13
2018-06-24T00:01:04.762Z,12.13
2018-06-24T00:02:04.691Z,12.22
2018-06-24T00:03:04.639Z,12.15
2018-06-24T00:04:04.592Z,12.09
2018-06-24T00:05:04.541Z,12.07
2018-06-24T00:06:04.516Z,12.14
2018-06-24T00:07:04.447Z,12.00
2018-06-24T00:08:04.397Z,12.07
2018-06-24T00:09:04.345Z,11.91
2018-06-24T00:10:04.301Z,12.03
2018-06-24T00:11:04.271Z,12.03
2018-06-24T00:12:04.204Z,12.07
2018-06-24T00:13:04.159Z,12.00
2018-06-24T00:14:04.104Z,12.10
2018-06-24T00:15:04.056Z,12.06
2018-06-24T00:16:04.033Z,12.07
2018-06-24T00:17:03.964Z,12.09
2018-06-24T00:18:03.916Z,12.10
2018-06-24T00:19:03.861Z,12.06
2018-06-24T00:20:03.809Z,12.10
2018-06-24T00:21:03.793Z,12.07
2018-06-24T00:22:03.710Z,12.13
2018-06-24T00:23:03.663Z,12.14
2018-06-24T00:24:03.615Z,12.13
2018-06-24T00:25:03.564Z,12.07
2018-06-24T00:26:03.544Z,11.97
2018-06-24T00:27:03.465Z,11.95
2018-06-24T00:28:03.419Z,11.90
2018-06-24T00:29:03.373Z,11.90
2018-06-24T00:30:03.324Z,11.79
2018-06-24T00:31:03.303Z,11.80
2018-06-24T00:32:03.224Z,11.77
2018-06-24T00:33:03.179Z,11.74
2018-06-24T00:34:03.127Z,11.77
2018-06-24T00:35:03.078Z,11.71
2018-06-24T00:36:03.051Z,11.69
2018-06-24T00:37:02.987Z,11.59
2018-06-24T00:38:02.931Z,11.59
2018-06-24T00:39:02.883Z,11.61
2018-06-24T00:40:02.837Z,11.62
2018-06-24T00:41:02.805Z,11.53
2018-06-24T00:42:02.739Z,11.63
2018-06-24T00:43:02.686Z,11.65
2018-06-24T00:44:02.641Z,11.59
2018-06-24T00:45:02.600Z,11.48
2018-06-24T00:46:02.563Z,11.65
2018-06-24T00:47:02.492Z,11.56
2018-06-24T00:48:02.466Z,11.53
2018-06-24T00:49:02.396Z,11.53
2018-06-24T00:50:02.342Z,11.48
2018-06-24T00:51:02.325Z,11.48
2018-06-24T00:52:02.247Z,11.63
2018-06-24T00:53:02.196Z,11.62
2018-06-24T00:54:02.145Z,11.58
2018-06-24T00:55:02.097Z,11.58
2018-06-24T00:56:02.076Z,11.59
2018-06-24T00:57:01.998Z,11.63
2018-06-24T00:58:01.956Z,11.62
2018-06-24T00:59:01.902Z,11.61
2018-06-24T01:00:01.849Z,11.59
2018-06-24T01:01:01.822Z,11.59
2018-06-24T01:02:01.759Z,11.62
2018-06-24T01:03:01.704Z,11.63
2018-06-24T01:04:01.658Z,11.62
2018-06-24T01:05:01.605Z,11.61
2018-06-24T01:06:01.585Z,11.59
2018-06-24T01:07:01.510Z,11.46
2018-06-24T01:08:01.460Z,11.40
2018-06-24T01:09:01.415Z,11.38
2018-06-24T01:10:01.362Z,11.33
2018-06-24T01:11:01.346Z,11.32
2018-06-24T01:12:01.262Z,11.37
2018-06-24T01:13:01.213Z,11.32
2018-06-24T01:14:01.166Z,11.33
2018-06-24T01:15:01.117Z,11.32
2018-06-24T01:16:01.097Z,11.25
2018-06-24T01:17:01.024Z,11.25
2018-06-24T01:18:00.967Z,11.25
2018-06-24T01:19:00.922Z,11.25
2018-06-24T01:20:00.869Z,11.22
2018-06-24T01:21:00.822Z,11.26
2018-06-24T01:22:00.795Z,11.25
2018-06-24T01:23:00.724Z,11.28
2018-06-24T01:24:00.675Z,11.23
2018-06-24T01:25:00.626Z,11.25
2018-06-24T01:26:00.577Z,11.22
2018-06-24T01:27:00.551Z,11.23
2018-06-24T01:28:00.475Z,11.26
2018-06-24T01:29:00.427Z,11.26
2018-06-24T01:30:00.380Z,11.35
2018-06-24T01:31:00.329Z,11.28
2018-06-24T01:32:00.299Z,11.32
2018-06-24T01:33:00.232Z,11.35
2018-06-24T01:34:00.184Z,11.32
2018-06-24T01:35:00.139Z,11.33
2018-06-24T01:36:00.083Z,11.40
2018-06-24T01:37:00.057Z,11.38
2018-06-24T01:37:59.991Z,11.40
2018-06-24T01:38:59.936Z,11.40
2018-06-24T01:39:59.889Z,11.41
2018-06-24T01:40:59.837Z,11.43
2018-06-24T01:41:59.810Z,11.50
2018-06-24T01:42:59.738Z,11.47
2018-06-24T01:43:59.689Z,11.37
2018-06-24T01:44:59.637Z,11.32
2018-06-24T01:45:59.595Z,11.30
2018-06-24T01:46:59.566Z,11.30
2018-06-24T01:47:59.494Z,11.33
2018-06-24T01:48:59.441Z,11.26
2018-06-24T01:49:59.395Z,11.29
2018-06-24T01:50:59.343Z,11.23
2018-06-24T01:51:59.318Z,11.25
2018-06-24T01:52:59.245Z,11.20
2018-06-24T01:53:59.196Z,11.22
2018-06-24T01:54:59.157Z,11.25
2018-06-24T01:55:59.101Z,11.26
2018-06-24T01:56:59.076Z,11.28
2018-06-24T01:57:59.000Z,11.26
2018-06-24T01:58:58.954Z,11.23
2018-06-24T01:59:58.901Z,11.25
2018-06-24T02:00:58.851Z,11.26
2018-06-24T02:01:58.831Z,11.30
2018-06-24T02:02:58.753Z,11.37
2018-06-24T02:03:58.709Z,11.32
2018-06-24T02:04:58.653Z,11.38
2018-06-24T02:05:58.604Z,11.38
2018-06-24T02:06:58.580Z,11.43
2018-06-24T02:07:58.505Z,11.40
2018-06-24T02:08:58.460Z,11.40
2018-06-24T02:09:58.409Z,11.41
2018-06-24T02:10:58.359Z,11.40
2018-06-24T02:11:58.334Z,11.44
2018-06-24T02:12:58.261Z,11.50
2018-06-24T02:13:58.212Z,11.51
2018-06-24T02:14:58.169Z,11.53
2018-06-24T02:15:58.115Z,11.48
2018-06-24T02:16:58.090Z,11.51
2018-06-24T02:17:58.017Z,11.51
2018-06-24T02:18:57.966Z,11.62
2018-06-24T02:19:57.923Z,11.62
2018-06-24T02:20:57.870Z,11.61
2018-06-24T02:21:57.840Z,11.65
2018-06-24T02:22:57.771Z,11.61
2018-06-24T02:23:57.720Z,11.62
2018-06-24T02:24:57.670Z,11.65
2018-06-24T02:25:57.624Z,11.63
2018-06-24T02:26:57.598Z,11.58
2018-06-24T02:27:57.526Z,11.69
2018-06-24T02:28:57.475Z,11.62
2018-06-24T02:29:57.426Z,11.72
2018-06-24T02:30:57.383Z,11.76
2018-06-24T02:31:57.355Z,11.74
2018-06-24T02:32:57.275Z,11.71
2018-06-24T02:33:57.235Z,11.69
2018-06-24T02:34:57.184Z,11.71
2018-06-24T02:35:57.130Z,11.74
2018-06-24T02:36:57.109Z,11.80
2018-06-24T02:37:57.035Z,11.79
2018-06-24T02:38:56.988Z,11.79
2018-06-24T02:39:56.938Z,11.80
2018-06-24T02:40:56.882Z,11.80
2018-06-24T02:41:56.862Z,11.87
2018-06-24T02:42:56.791Z,11.87
2018-06-24T02:43:56.738Z,11.91
2018-06-24T02:44:56.688Z,11.90
2018-06-24T02:45:56.647Z,11.96
2018-06-24T02:46:56.614Z,11.90
2018-06-24T02:47:56.544Z,11.90
2018-06-24T02:48:56.495Z,11.99
2018-06-24T02:49:56.445Z,11.88
2018-06-24T02:50:56.399Z,11.86
2018-06-24T02:51:56.356Z,11.91
2018-06-24T02:52:56.323Z,11.87
2018-06-24T02:53:56.251Z,11.95
2018-06-24T02:54:56.199Z,11.87
2018-06-24T02:55:56.149Z,11.91
2018-06-24T02:56:56.100Z,11.91
2018-06-24T02:57:56.080Z,11.91
2018-06-24T02:58:56.005Z,11.87
2018-06-24T02:59:55.963Z,11.88
2018-06-24T03:00:55.906Z,11.87
2018-06-24T03:01:55.860Z,11.86
2018-06-24T03:02:55.837Z,11.95
2018-06-24T03:03:55.763Z,11.90
2018-06-24T03:04:55.710Z,11.95
2018-06-24T03:05:55.659Z,11.96
2018-06-24T03:06:55.618Z,11.88
2018-06-24T03:07:55.587Z,11.88
2018-06-24T03:08:55.511Z,11.90
2018-06-24T03:09:55.466Z,11.97
2018-06-24T03:10:55.418Z,11.95
2018-06-24T03:11:55.369Z,11.97
2018-06-24T03:12:55.346Z,11.96
2018-06-24T03:13:55.271Z,11.96
2018-06-24T03:14:55.219Z,11.95
2018-06-24T03:15:55.177Z,11.96
2018-06-24T03:16:55.122Z,12.00
2018-06-24T03:17:55.097Z,11.95
2018-06-24T03:18:55.027Z,12.05
2018-06-24T03:21:26.467Z,12.00
2018-06-24T03:22:26.448Z,11.97
2018-06-24T03:23:26.367Z,11.99
2018-06-24T03:24:26.312Z,11.91
2018-06-24T03:25:26.263Z,11.97
2018-06-24T03:26:26.215Z,11.91
2018-06-24T03:27:26.192Z,11.86
2018-06-24T03:28:26.115Z,11.95
2018-06-24T03:29:26.069Z,11.95
2018-06-24T03:30:26.016Z,11.90
2018-06-24T03:31:25.973Z,11.95
2018-06-24T03:32:25.948Z,11.88
2018-06-24T03:33:25.875Z,11.90
2018-06-24T03:34:25.822Z,11.87
2018-06-24T03:35:25.774Z,11.88
2018-06-24T03:36:25.722Z,11.90
2018-06-24T03:37:25.699Z,11.95
2018-06-24T03:38:25.626Z,11.96
2018-06-24T03:39:25.578Z,11.97
2018-06-24T03:40:25.525Z,11.95
2018-06-24T03:41:25.478Z,11.99
2018-06-24T03:42:25.460Z,11.97
2018-06-24T03:43:25.379Z,12.02
2018-06-24T03:44:25.331Z,12.02
2018-06-24T03:45:25.288Z,12.07
2018-06-24T03:46:25.233Z,11.99
2018-06-24T03:47:25.187Z,12.02
2018-06-24T03:48:25.158Z,12.05
2018-06-24T03:49:25.090Z,11.96
2018-06-24T03:50:25.046Z,11.99
2018-06-24T03:51:24.988Z,11.95
2018-06-24T03:52:24.945Z,11.97
2018-06-24T03:53:24.915Z,12.02
2018-06-24T03:54:24.847Z,11.91
2018-06-24T03:55:24.792Z,11.87
2018-06-24T03:56:24.743Z,11.90
2018-06-24T03:57:24.691Z,11.88
2018-06-24T03:58:24.673Z,11.90
2018-06-24T03:59:24.598Z,11.90
2018-06-24T04:00:24.551Z,11.90
2018-06-24T04:01:24.501Z,11.90
2018-06-24T04:02:24.455Z,11.88
2018-06-24T04:03:24.431Z,11.86
2018-06-24T04:04:24.356Z,11.81
2018-06-24T04:05:24.319Z,11.90
2018-06-24T04:06:24.260Z,11.86
2018-06-24T04:07:24.211Z,11.87
2018-06-24T04:08:24.180Z,11.86
2018-06-24T04:09:24.110Z,11.86
2018-06-24T04:10:24.061Z,11.87
2018-06-24T04:11:24.012Z,11.95
2018-06-24T04:12:23.962Z,11.99
2018-06-24T04:13:23.938Z,12.00
2018-06-24T04:14:23.863Z,12.00
2018-06-24T04:15:23.818Z,12.03
2018-06-24T04:16:23.766Z,12.09
2018-06-24T04:17:23.715Z,12.09
2018-06-24T04:18:23.703Z,12.14
2018-06-24T04:19:23.617Z,12.09
2018-06-24T04:20:23.588Z,12.14
2018-06-24T04:21:23.520Z,12.07
2018-06-24T04:22:23.474Z,12.07
2018-06-24T04:23:23.445Z,12.05
2018-06-24T04:24:23.375Z,12.06
2018-06-24T04:25:23.328Z,12.05
2018-06-24T04:26:23.276Z,12.14
2018-06-24T04:27:23.229Z,12.15
2018-06-24T04:28:23.204Z,12.13
2018-06-24T04:29:23.132Z,12.13
2018-06-24T04:30:23.081Z,12.09
2018-06-24T04:31:23.038Z,12.22
2018-06-24T04:32:22.983Z,12.22
2018-06-24T04:33:22.955Z,12.25
2018-06-24T04:34:22.885Z,12.27
2018-06-24T04:35:22.838Z,12.30
2018-06-24T04:36:22.789Z,12.32
2018-06-24T04:37:22.752Z,12.36
2018-06-24T04:38:22.718Z,12.38
2018-06-24T04:39:22.642Z,12.35
2018-06-24T04:40:22.598Z,12.36
2018-06-24T04:41:22.547Z,12.38
2018-06-24T04:42:22.496Z,12.33
2018-06-24T04:43:22.472Z,12.38
2018-06-24T04:44:22.399Z,12.40
2018-06-24T04:45:22.350Z,12.42
2018-06-24T04:46:22.302Z,12.39
2018-06-24T04:47:22.258Z,12.43
2018-06-24T04:48:22.227Z,12.38
2018-06-24T04:49:22.154Z,12.45
2018-06-24T04:50:22.111Z,12.43
2018-06-24T04:51:22.058Z,12.42
2018-06-24T04:52:22.008Z,12.39
2018-06-24T04:53:21.987Z,12.47
2018-06-24T04:54:21.911Z,12.45
2018-06-24T04:55:21.865Z,12.46
2018-06-24T04:56:21.812Z,12.55
2018-06-24T04:57:21.771Z,12.54
2018-06-24T04:58:21.755Z,12.54
2018-06-24T04:59:21.670Z,12.51
2018-06-24T05:00:21.627Z,12.57
2018-06-24T05:01:21.573Z,12.57
2018-06-24T05:02:21.529Z,12.64
2018-06-24T05:03:21.512Z,12.60
2018-06-24T05:04:21.423Z,12.68
2018-06-24T05:05:21.380Z,12.63
2018-06-24T05:06:21.385Z,12.60
2018-06-24T05:07:21.279Z,12.63
2018-06-24T05:08:21.243Z,12.60
2018-06-24T05:09:21.206Z,12.60
2018-06-24T05:10:21.132Z,12.60
2018-06-24T05:11:21.085Z,12.54
2018-06-24T05:12:21.035Z,12.63
2018-06-24T05:13:20.987Z,12.65
2018-06-24T05:14:20.965Z,12.60
2018-06-24T05:15:20.891Z,12.63
2018-06-24T05:16:20.843Z,12.63
2018-06-24T05:17:20.791Z,12.61
2018-06-24T05:18:20.749Z,12.69
2018-06-24T05:19:20.720Z,12.61
2018-06-24T05:20:20.643Z,12.63
2018-06-24T05:21:20.595Z,12.68
2018-06-24T05:22:20.550Z,12.61
2018-06-24T05:23:20.502Z,12.65
2018-06-24T05:24:20.476Z,12.68
2018-06-24T05:25:20.404Z,12.63
2018-06-24T05:26:20.358Z,12.64
2018-06-24T05:27:20.307Z,12.68
2018-06-24T05:28:20.343Z,12.71
2018-06-24T05:29:20.236Z,12.75
2018-06-24T05:30:20.162Z,12.80
2018-06-24T05:31:20.110Z,12.76
2018-06-24T05:32:20.064Z,12.79
2018-06-24T05:33:20.017Z,12.90
2018-06-24T05:34:19.991Z,12.88
2018-06-24T05:35:19.917Z,12.90
2018-06-24T05:36:19.871Z,12.85
2018-06-24T05:37:19.822Z,12.90
2018-06-24T05:38:19.774Z,12.94
2018-06-24T05:39:19.748Z,13.05
2018-06-24T05:40:19.679Z,12.97
2018-06-24T05:41:19.630Z,13.00
2018-06-24T05:42:19.581Z,13.06
2018-06-24T05:43:19.536Z,13.05
2018-06-24T05:44:19.509Z,12.96
2018-06-24T05:45:19.434Z,13.09
2018-06-24T05:46:19.385Z,13.01
2018-06-24T05:47:19.339Z,13.00
2018-06-24T05:48:19.286Z,13.15
2018-06-24T05:49:19.275Z,13.13
2018-06-24T05:50:19.191Z,13.27
2018-06-24T05:51:19.146Z,13.16
2018-06-24T05:52:19.093Z,13.19
2018-06-24T05:53:19.044Z,13.19
2018-06-24T05:54:19.039Z,13.24
2018-06-24T05:55:18.952Z,13.21
2018-06-24T05:56:18.910Z,13.21
2018-06-24T05:57:18.855Z,13.19
2018-06-24T05:58:18.807Z,13.22
2018-06-24T05:59:18.778Z,13.18
2018-06-24T06:00:18.711Z,13.30
2018-06-24T06:01:18.660Z,13.21
2018-06-24T06:02:18.608Z,13.30
2018-06-24T06:03:18.562Z,13.26
2018-06-24T06:04:18.547Z,13.31
2018-06-24T06:05:18.466Z,13.30
2018-06-24T06:06:18.419Z,13.33
2018-06-24T06:07:18.371Z,13.31
2018-06-24T06:08:18.319Z,13.35
2018-06-24T06:09:18.300Z,13.50
2018-06-24T06:10:18.269Z,13.47
2018-06-24T06:11:18.177Z,13.39
2018-06-24T06:12:18.146Z,13.39
2018-06-24T06:13:18.083Z,13.55
2018-06-24T06:14:18.056Z,13.50
2018-06-24T06:15:17.982Z,13.38
2018-06-24T06:16:17.934Z,13.38
2018-06-24T06:17:17.883Z,13.39
2018-06-24T06:18:17.842Z,13.43
2018-06-24T06:19:17.816Z,13.45
2018-06-24T06:20:17.742Z,13.33
2018-06-24T06:21:17.693Z,13.52
2018-06-24T06:22:17.648Z,13.46
2018-06-24T06:23:17.594Z,13.45
2018-06-24T06:24:17.548Z,13.45
2018-06-24T06:25:17.522Z,13.35
2018-06-24T06:26:17.455Z,13.47
2018-06-24T06:27:17.416Z,13.47
2018-06-24T06:28:17.358Z,13.53
2018-06-24T06:29:17.310Z,13.47
2018-06-24T06:30:17.342Z,13.47
2018-06-24T06:31:17.212Z,13.46
2018-06-24T06:32:17.167Z,13.41
2018-06-24T06:33:17.116Z,13.50
2018-06-24T06:34:17.068Z,13.43
2018-06-24T06:35:17.039Z,13.47
2018-06-24T06:36:16.971Z,13.46
2018-06-24T06:37:16.921Z,13.45
2018-06-24T06:38:16.872Z,13.46
2018-06-24T06:39:16.830Z,13.41
2018-06-24T06:40:16.799Z,13.49
2018-06-24T06:41:16.733Z,13.50
2018-06-24T06:42:16.682Z,13.46
2018-06-24T06:43:16.634Z,13.43
2018-06-24T06:44:16.582Z,13.52
2018-06-24T06:45:16.612Z,13.49
2018-06-24T06:46:16.488Z,13.46
2018-06-24T06:47:16.443Z,13.50
2018-06-24T06:48:16.393Z,13.47
2018-06-24T06:49:16.343Z,13.52
2018-06-24T06:50:16.317Z,13.49
2018-06-24T06:51:16.247Z,13.53
2018-06-24T06:52:16.206Z,13.50
2018-06-24T06:53:16.153Z,13.50
2018-06-24T06:54:16.104Z,13.49
2018-06-24T06:55:16.082Z,13.50
2018-06-24T06:56:16.005Z,13.52
2018-06-24T06:57:15.969Z,13.56
2018-06-24T06:58:15.909Z,13.52
2018-06-24T06:59:15.863Z,13.52
2018-06-24T07:00:15.892Z,13.53
2018-06-24T07:01:15.764Z,13.63
2018-06-24T07:02:15.717Z,13.60
2018-06-24T07:03:15.713Z,13.67
2018-06-24T07:04:15.619Z,13.63
2018-06-24T07:05:15.594Z,13.68
2018-06-24T07:06:15.527Z,13.75
2018-06-24T07:07:15.477Z,13.75
2018-06-24T07:08:15.428Z,13.78
2018-06-24T07:09:15.384Z,13.77
2018-06-24T07:10:15.353Z,13.88
2018-06-24T07:11:15.281Z,13.85
2018-06-24T07:12:15.235Z,13.95
2018-06-24T07:13:15.217Z,13.93
2018-06-24T07:14:15.138Z,13.96
2018-06-24T07:15:15.122Z,13.97
2018-06-24T07:16:15.042Z,13.93
2018-06-24T07:17:14.993Z,13.97
2018-06-24T07:18:14.947Z,14.00
2018-06-24T07:19:14.896Z,14.03
2018-06-24T07:20:14.872Z,14.04
2018-06-24T07:21:14.803Z,14.05
2018-06-24T07:22:14.756Z,14.11
2018-06-24T07:23:14.706Z,14.18
2018-06-24T07:24:14.656Z,14.07
2018-06-24T07:25:14.635Z,14.13
2018-06-24T07:26:14.567Z,14.18
2018-06-24T07:27:14.516Z,14.08
2018-06-24T07:28:14.463Z,14.18
2018-06-24T07:29:14.419Z,14.20
2018-06-24T07:30:14.394Z,14.18
2018-06-24T07:31:14.325Z,14.25
2018-06-24T07:32:14.278Z,14.26
2018-06-24T07:33:14.254Z,14.23
2018-06-24T07:34:14.178Z,14.28
2018-06-24T07:35:14.155Z,14.26
2018-06-24T07:36:14.082Z,14.23
2018-06-24T07:37:14.035Z,14.19
2018-06-24T07:38:13.988Z,14.40
2018-06-24T07:39:13.971Z,14.33
2018-06-24T07:40:13.917Z,14.40
2018-06-24T07:41:13.843Z,14.41
2018-06-24T07:42:13.803Z,14.40
2018-06-24T07:43:13.745Z,14.43
2018-06-24T07:44:13.712Z,14.45
2018-06-24T07:45:13.653Z,14.50
2018-06-24T07:46:13.629Z,14.45
2018-06-24T07:47:13.556Z,14.38
2018-06-24T07:48:13.521Z,14.45
2018-06-24T07:49:13.461Z,14.44
2018-06-24T07:50:13.499Z,14.44
2018-06-24T07:51:13.391Z,14.44
2018-06-24T07:52:13.341Z,14.47
2018-06-24T07:53:13.273Z,14.44
2018-06-24T07:54:13.227Z,14.44
2018-06-24T07:55:13.180Z,14.51
2018-06-24T07:56:13.153Z,14.45
2018-06-24T07:57:13.083Z,14.53
2018-06-24T07:58:13.031Z,14.50
2018-06-24T07:59:12.983Z,14.56
2018-06-24T08:00:12.941Z,14.55
2018-06-24T08:01:12.920Z,14.50
2018-06-24T08:02:12.845Z,14.51
2018-06-24T08:03:12.819Z,14.58
2018-06-24T08:04:12.749Z,14.48
2018-06-24T08:05:12.753Z,14.55
2018-06-24T08:06:12.678Z,14.56
2018-06-24T08:07:12.605Z,14.63
2018-06-24T08:08:12.559Z,14.65
2018-06-24T08:09:12.514Z,14.74
2018-06-24T08:10:12.462Z,14.82
2018-06-24T08:11:12.448Z,14.85
2018-06-24T08:12:12.370Z,14.81
2018-06-24T08:13:12.367Z,14.95
2018-06-24T08:14:12.271Z,14.99
2018-06-24T08:15:12.225Z,14.97
2018-06-24T08:16:12.207Z,15.03
2018-06-24T08:17:12.131Z,14.97
2018-06-24T08:18:12.082Z,15.04
2018-06-24T08:19:12.035Z,15.15
2018-06-24T08:20:11.984Z,15.15
2018-06-24T08:21:11.961Z,15.14
2018-06-24T08:22:11.895Z,15.17
2018-06-24T08:23:11.842Z,15.18
2018-06-24T08:24:11.796Z,15.21
2018-06-24T08:25:11.753Z,15.27
2018-06-24T08:26:11.725Z,15.27
2018-06-24T08:27:11.667Z,15.30
2018-06-24T08:28:11.612Z,15.27
2018-06-24T08:29:11.575Z,15.22
2018-06-24T08:30:11.513Z,15.21
2018-06-24T08:31:11.490Z,15.18
2018-06-24T08:32:11.419Z,15.18
2018-06-24T08:33:11.375Z,15.21
2018-06-24T08:34:11.332Z,15.18
2018-06-24T08:35:11.276Z,15.19
2018-06-24T08:36:11.250Z,15.17
2018-06-24T08:37:11.222Z,15.18
2018-06-24T08:38:11.141Z,15.19
2018-06-24T08:39:11.087Z,15.19
2018-06-24T08:40:11.040Z,15.04
2018-06-24T08:41:11.015Z,15.15
2018-06-24T08:42:10.946Z,14.99
2018-06-24T08:43:10.903Z,14.97
2018-06-24T08:44:10.853Z,14.97
2018-06-24T08:45:10.807Z,14.82
2018-06-24T08:46:10.788Z,14.84
2018-06-24T08:47:10.779Z,14.82
2018-06-24T08:48:10.661Z,14.79
2018-06-24T08:49:10.613Z,14.85
2018-06-24T08:50:10.571Z,14.70
2018-06-24T08:51:10.556Z,14.66
2018-06-24T08:52:10.524Z,14.74
2018-06-24T08:53:10.427Z,14.63
2018-06-24T08:54:10.375Z,14.62
2018-06-24T08:55:10.331Z,14.61
2018-06-24T08:56:10.309Z,14.65
2018-06-24T08:57:10.239Z,14.61
2018-06-24T08:58:10.191Z,14.65
2018-06-24T08:59:10.142Z,14.58
2018-06-24T09:00:10.093Z,14.51
2018-06-24T09:01:10.071Z,14.51
2018-06-24T09:02:10.000Z,14.55
2018-06-24T09:03:09.972Z,14.56
2018-06-24T09:04:09.901Z,14.58
2018-06-24T09:05:09.860Z,14.50
2018-06-24T09:06:09.828Z,14.55
2018-06-24T09:07:09.756Z,14.62
2018-06-24T09:08:09.754Z,14.56
2018-06-24T09:09:09.660Z,14.59
2018-06-24T09:10:09.619Z,14.62
2018-06-24T09:11:09.611Z,14.68
2018-06-24T09:12:09.522Z,14.68
2018-06-24T09:13:09.472Z,14.65
2018-06-24T09:14:09.427Z,14.82
2018-06-24T09:15:09.380Z,14.87
2018-06-24T09:16:09.330Z,14.96
2018-06-24T09:17:09.307Z,14.99
2018-06-24T09:18:09.234Z,14.96
2018-06-24T09:19:09.202Z,15.00
2018-06-24T09:20:09.139Z,15.15
2018-06-24T09:21:09.093Z,15.18
2018-06-24T09:22:09.127Z,15.24
2018-06-24T09:23:09.001Z,15.22
2018-06-24T09:24:08.951Z,15.19
2018-06-24T09:25:08.902Z,15.21
2018-06-24T09:26:08.853Z,15.19
2018-06-24T09:27:08.832Z,15.19
2018-06-24T09:28:08.759Z,15.19
2018-06-24T09:29:08.714Z,15.19
2018-06-24T09:30:08.664Z,15.18
2018-06-24T09:31:08.616Z,15.17
2018-06-24T09:32:08.597Z,15.17
2018-06-24T09:33:08.522Z,15.03
2018-06-24T09:34:08.480Z,15.02
2018-06-24T09:35:08.427Z,15.00
2018-06-24T09:36:08.379Z,14.99
2018-06-24T09:37:08.360Z,14.85
2018-06-24T09:38:08.298Z,14.78
2018-06-24T09:39:08.239Z,14.69
2018-06-24T09:40:08.190Z,14.56
2018-06-24T09:41:08.144Z,14.47
2018-06-24T09:42:08.117Z,14.38
2018-06-24T09:43:08.048Z,14.40
2018-06-24T09:44:08.003Z,14.22
2018-06-24T09:45:07.952Z,14.19
2018-06-24T09:46:07.907Z,14.10
2018-06-24T09:47:07.879Z,14.05
2018-06-24T09:48:07.808Z,13.89
2018-06-24T09:49:07.766Z,13.82
2018-06-24T09:50:07.714Z,13.80
2018-06-24T09:51:07.670Z,13.71
2018-06-24T09:52:07.642Z,13.63
2018-06-24T09:53:07.573Z,13.63
2018-06-24T09:54:07.520Z,13.70
2018-06-24T09:55:07.474Z,13.63
2018-06-24T09:56:15.299Z,13.65
2018-06-24T09:57:07.403Z,13.75
2018-06-24T09:58:07.329Z,13.77
2018-06-24T09:59:07.286Z,13.85
2018-06-24T10:00:07.234Z,13.96
2018-06-24T10:01:07.184Z,14.04
2018-06-24T10:02:07.163Z,14.08
2018-06-24T10:03:07.088Z,14.18
2018-06-24T10:04:07.038Z,14.23
2018-06-24T10:05:06.990Z,14.37
2018-06-24T10:06:06.949Z,14.45
2018-06-24T10:07:06.918Z,14.45
2018-06-24T10:08:06.849Z,14.50
2018-06-24T10:09:06.802Z,14.50
2018-06-24T10:10:06.753Z,14.47
2018-06-24T10:11:06.759Z,14.44
2018-06-24T10:12:06.700Z,14.47
2018-06-24T10:13:06.610Z,14.48
2018-06-24T10:14:06.562Z,14.41
2018-06-24T10:15:06.513Z,14.51
2018-06-24T10:16:06.465Z,14.43
2018-06-24T10:17:06.438Z,14.51
2018-06-24T10:18:06.366Z,14.63
2018-06-24T10:19:06.327Z,14.65
2018-06-24T10:20:06.271Z,14.68
2018-06-24T10:21:06.230Z,14.73
2018-06-24T10:22:06.203Z,14.77
2018-06-24T10:23:06.127Z,14.73
2018-06-24T10:24:06.078Z,14.69
2018-06-24T10:25:06.035Z,14.84
2018-06-24T10:26:05.987Z,14.89
2018-06-24T10:27:05.959Z,14.81
2018-06-24T10:28:05.891Z,14.97
2018-06-24T10:29:05.847Z,14.97
2018-06-24T10:30:05.794Z,15.12
2018-06-24T10:31:05.745Z,15.15
2018-06-24T10:32:05.721Z,15.14
2018-06-24T10:33:05.646Z,15.18
2018-06-24T10:34:05.609Z,15.21
2018-06-24T10:35:05.555Z,15.22
2018-06-24T10:36:05.509Z,15.14
2018-06-24T10:37:05.486Z,15.17
2018-06-24T10:38:05.416Z,15.07
2018-06-24T10:39:05.365Z,15.09
2018-06-24T10:40:05.321Z,14.97
2018-06-24T10:41:05.329Z,14.97
2018-06-24T10:42:05.256Z,14.93
2018-06-24T10:43:05.181Z,14.85
2018-06-24T10:44:05.130Z,14.84
2018-06-24T10:45:05.081Z,14.89
2018-06-24T10:46:05.036Z,14.81
2018-06-24T10:47:04.983Z,14.81
2018-06-24T10:48:04.962Z,14.87
2018-06-24T10:49:04.890Z,14.87
2018-06-24T10:50:04.842Z,14.91
2018-06-24T10:51:04.801Z,14.89
2018-06-24T10:52:04.748Z,14.84
2018-06-24T10:53:04.752Z,14.91
2018-06-24T10:54:04.655Z,14.87
2018-06-24T10:55:04.607Z,14.78
2018-06-24T10:56:04.556Z,14.81
2018-06-24T10:57:04.506Z,14.74
2018-06-24T10:58:04.482Z,14.73
2018-06-24T10:59:04.419Z,14.66
2018-06-24T11:00:04.363Z,14.65
2018-06-24T11:01:04.321Z,14.56
2018-06-24T11:02:04.323Z,14.55
2018-06-24T11:03:04.245Z,14.48
2018-06-24T11:04:04.175Z,14.45
2018-06-24T11:05:04.129Z,14.50
2018-06-24T11:06:04.079Z,14.55
2018-06-24T11:07:04.031Z,14.51
2018-06-24T11:08:04.006Z,14.59
2018-06-24T11:09:03.944Z,14.56
2018-06-24T11:10:03.892Z,14.55
2018-06-24T11:11:03.843Z,14.63
2018-06-24T11:12:03.792Z,14.73
2018-06-24T11:13:03.768Z,14.74
2018-06-24T11:14:03.694Z,14.81
2018-06-24T11:15:03.648Z,14.82
2018-06-24T11:16:03.602Z,14.84
2018-06-24T11:17:03.555Z,14.96
2018-06-24T11:18:03.529Z,14.97
2018-06-24T11:19:03.459Z,15.04
2018-06-24T11:20:03.406Z,15.12
2018-06-24T11:21:03.372Z,15.12
2018-06-24T11:22:03.314Z,15.15
2018-06-24T11:23:03.295Z,15.21
2018-06-24T11:24:03.225Z,15.19
2018-06-24T11:25:03.174Z,15.33
2018-06-24T11:26:03.125Z,15.44
2018-06-24T11:27:03.080Z,15.40
2018-06-24T11:28:03.067Z,15.37
2018-06-24T11:29:02.985Z,15.37
2018-06-24T11:30:02.935Z,15.33
2018-06-24T11:31:02.949Z,15.44
2018-06-24T11:32:02.841Z,15.42
2018-06-24T11:33:02.817Z,15.43
2018-06-24T11:34:02.746Z,15.36
2018-06-24T11:35:02.697Z,15.50
2018-06-24T11:36:02.653Z,15.54
2018-06-24T11:37:02.631Z,15.52
2018-06-24T11:38:02.581Z,15.54
2018-06-24T11:39:02.509Z,15.55
2018-06-24T11:40:02.470Z,15.58
2018-06-24T11:41:02.417Z,15.62
2018-06-24T11:42:02.364Z,15.52
2018-06-24T11:43:02.374Z,15.48
2018-06-24T11:44:02.278Z,15.48
2018-06-24T11:45:02.229Z,15.46
2018-06-24T11:46:02.180Z,15.48
2018-06-24T11:47:02.133Z,15.46
2018-06-24T11:48:02.106Z,15.43
2018-06-24T11:49:02.038Z,15.42
2018-06-24T11:50:01.990Z,15.40
2018-06-24T11:51:01.943Z,15.36
2018-06-24T11:52:01.897Z,15.39
2018-06-24T11:53:01.874Z,15.43
2018-06-24T11:54:01.806Z,15.33
2018-06-24T11:55:01.751Z,15.40
2018-06-24T11:56:01.704Z,15.48
2018-06-24T11:57:01.718Z,15.36
2018-06-24T11:58:01.637Z,15.36
2018-06-24T11:59:01.560Z,15.37
2018-06-24T12:00:01.516Z,15.35
2018-06-24T12:01:01.469Z,15.40
2018-06-24T12:02:01.561Z,15.33
2018-06-24T12:03:01.419Z,15.32
2018-06-24T12:04:01.328Z,15.21
2018-06-24T12:05:01.278Z,15.36
2018-06-24T12:06:01.226Z,15.27
2018-06-24T12:07:01.187Z,15.32
2018-06-24T12:08:01.159Z,15.33
2018-06-24T12:09:01.089Z,15.27
2018-06-24T12:10:01.044Z,15.32
2018-06-24T12:11:00.994Z,15.32
2018-06-24T12:12:00.947Z,15.39
2018-06-24T12:13:00.926Z,15.39
2018-06-24T12:14:00.850Z,15.36
2018-06-24T12:15:00.804Z,15.30
2018-06-24T12:16:00.756Z,15.21
2018-06-24T12:17:00.712Z,15.19
2018-06-24T12:18:00.662Z,15.22
2018-06-24T12:19:00.651Z,15.19
2018-06-24T12:20:00.566Z,15.27
2018-06-24T12:21:00.523Z,15.22
2018-06-24T12:22:00.474Z,15.28
2018-06-24T12:23:00.436Z,15.28
2018-06-24T12:24:00.401Z,15.36
2018-06-24T12:25:00.331Z,15.37
2018-06-24T12:26:00.281Z,15.36
2018-06-24T12:27:00.235Z,15.40
2018-06-24T12:28:00.186Z,15.42
2018-06-24T12:29:00.161Z,15.48
2018-06-24T12:30:00.101Z,15.43
2018-06-24T12:31:00.049Z,15.40
2018-06-24T12:31:59.998Z,15.40
2018-06-24T12:32:59.952Z,15.46
2018-06-24T12:33:59.923Z,15.46
2018-06-24T12:34:59.858Z,15.52
2018-06-24T12:35:59.813Z,15.52
2018-06-24T12:36:59.759Z,15.54
2018-06-24T12:37:59.729Z,15.58
2018-06-24T12:38:59.687Z,15.57
2018-06-24T12:39:59.620Z,15.58
2018-06-24T12:40:59.570Z,15.58
2018-06-24T12:41:59.525Z,15.65
2018-06-24T12:42:59.508Z,15.68
2018-06-24T12:43:59.457Z,15.65
2018-06-24T12:44:59.385Z,15.62
2018-06-24T12:45:59.334Z,15.61
2018-06-24T12:46:59.286Z,15.60
2018-06-24T12:47:59.239Z,15.61
2018-06-24T12:48:59.217Z,15.65
2018-06-24T12:49:59.146Z,15.70
2018-06-24T12:50:59.095Z,15.68
2018-06-24T12:51:59.048Z,15.69
2018-06-24T12:52:59.006Z,15.54